Terminal Aerodrome Forecast
Issued by NWS

Home | Current Version | Previous Version | Text Only | Print | Product List | Glossary On
Versions: 1 2 3 4 5 6 7 8 9 10 11 12
474
FTUS45 KRIW 222322
TAFRKS
TAF
KRKS 222322Z 2300/2324 05020G30KT P6SM -SHRA SCT025 OVC045
     FM230130 06014KT P6SM VCSH SCT030 BKN045
     FM230600 07008KT P6SM SCT050
     FM230900 VRB04KT P6SM VCFG FEW009
     FM231400 25008KT P6SM SCT050
     FM231900 30012KT P6SM FEW060=

USA.gov is the U.S. government's official web portal to all federal, state and local government web resources and services.